createdAt,value
2023-08-12T00:00:12.480Z,99584.34
2023-08-12T00:01:18.070Z,99569.31
2023-08-12T00:02:20.330Z,99574.31
2023-08-12T00:03:22.898Z,99574.09
2023-08-12T00:04:25.252Z,99563.75
2023-08-12T00:05:27.530Z,99569.88
2023-08-12T00:06:29.894Z,99567.72
2023-08-12T00:07:33.643Z,99556.00
2023-08-12T00:08:35.840Z,99559.91
2023-08-12T00:09:38.197Z,99557.03
2023-08-12T00:10:40.379Z,99558.50
2023-08-12T00:11:42.612Z,99556.22
2023-08-12T00:12:44.962Z,99551.66
2023-08-12T00:13:47.168Z,99546.31
2023-08-12T00:14:49.399Z,99548.03
2023-08-12T00:15:53.406Z,99547.16
2023-08-12T00:16:55.724Z,99540.88
2023-08-12T00:17:57.980Z,99543.66
2023-08-12T00:19:00.347Z,99544.28
2023-08-12T00:20:06.893Z,99547.28
2023-08-12T00:21:11.022Z,99549.06
2023-08-12T00:22:14.142Z,99549.66
2023-08-12T00:23:16.394Z,99553.81
2023-08-12T00:24:19.517Z,99553.59
2023-08-12T00:25:22.269Z,99546.47
2023-08-12T00:26:24.529Z,99548.16
2023-08-12T00:27:26.856Z,99549.56
2023-08-12T00:28:29.062Z,99552.00
2023-08-12T00:29:31.332Z,99542.53
2023-08-12T00:30:35.460Z,99536.91
2023-08-12T00:31:37.849Z,99540.63
2023-08-12T00:32:41.732Z,99546.59
2023-08-12T00:33:44.035Z,99550.31
2023-08-12T00:34:46.288Z,99544.03
2023-08-12T00:35:48.669Z,99541.63
2023-08-12T00:36:50.920Z,99547.75
2023-08-12T00:37:53.284Z,99545.97
2023-08-12T00:38:55.745Z,99543.31
2023-08-12T00:39:59.701Z,99537.13
2023-08-12T00:41:02.144Z,99542.34
2023-08-12T00:42:04.621Z,99538.50
2023-08-12T00:43:07.013Z,99542.94
2023-08-12T00:44:09.213Z,99539.91
2023-08-12T00:45:13.813Z,99535.94
2023-08-12T00:46:16.378Z,99538.19
2023-08-12T00:47:18.749Z,99542.75
2023-08-12T00:48:22.609Z,99543.41
2023-08-12T00:49:25.696Z,99534.97
2023-08-12T00:50:29.679Z,99545.00
2023-08-12T00:51:32.843Z,99541.06
2023-08-12T00:52:35.435Z,99528.16
2023-08-12T00:53:38.224Z,99535.75
2023-08-12T00:54:40.585Z,99534.72
2023-08-12T00:55:43.018Z,99534.72
2023-08-12T00:56:46.159Z,99535.75
2023-08-12T00:57:48.654Z,99527.16
2023-08-12T00:58:51.154Z,99531.06
2023-08-12T00:59:55.355Z,99532.31
2023-08-12T01:00:58.103Z,99528.38
2023-08-12T01:02:00.483Z,99531.59
2023-08-12T01:03:02.877Z,99533.78
2023-08-12T01:04:05.598Z,99519.50
2023-08-12T01:05:08.213Z,99521.22
2023-08-12T01:06:11.002Z,99517.38
2023-08-12T01:07:13.778Z,99517.25
2023-08-12T01:08:16.380Z,99504.91
2023-08-12T01:09:18.698Z,99518.00
2023-08-12T01:10:24.274Z,99510.84
2023-08-12T01:11:40.377Z,99509.56
2023-08-12T01:12:57.384Z,99516.34
2023-08-12T01:14:05.076Z,99509.84
2023-08-12T01:15:17.020Z,99506.94
2023-08-12T01:16:22.364Z,99508.28
2023-08-12T01:17:26.215Z,99510.84
2023-08-12T01:18:29.000Z,99501.66
2023-08-12T01:19:35.708Z,99504.09
2023-08-12T01:20:38.972Z,99503.88
2023-08-12T01:21:44.911Z,99499.47
2023-08-12T01:22:48.730Z,99503.34
2023-08-12T01:23:51.639Z,99505.78
2023-08-12T01:24:54.033Z,99501.31
2023-08-12T01:25:56.385Z,99500.34
2023-08-12T01:26:58.681Z,99498.66
2023-08-12T01:28:00.943Z,99496.59
2023-08-12T01:29:04.659Z,99501.09
2023-08-12T01:30:08.757Z,99495.50
2023-08-12T01:31:23.862Z,99503.63
2023-08-12T01:32:57.864Z,99500.63
2023-08-12T01:34:08.922Z,99491.75
2023-08-12T01:35:36.125Z,99496.75
2023-08-12T01:36:41.865Z,99504.09
2023-08-12T01:37:45.072Z,99504.03
2023-08-12T01:38:50.243Z,99504.25
2023-08-12T01:39:55.503Z,99500.53
2023-08-12T01:40:58.886Z,99512.88
2023-08-12T01:42:01.610Z,99509.94
2023-08-12T01:43:05.248Z,99508.22
2023-08-12T01:44:07.964Z,99510.00
2023-08-12T01:45:11.788Z,99505.25
2023-08-12T01:46:14.375Z,99510.69
2023-08-12T01:47:16.697Z,99519.00
2023-08-12T01:48:21.352Z,99510.97
2023-08-12T01:49:25.461Z,99511.03
2023-08-12T01:50:30.738Z,99511.47
2023-08-12T01:51:32.970Z,99511.38
2023-08-12T01:52:35.787Z,99507.44
2023-08-12T01:53:38.000Z,99519.22
2023-08-12T01:54:41.104Z,99519.66
2023-08-12T01:55:44.989Z,99518.16
2023-08-12T01:56:47.967Z,99512.75
2023-08-12T01:57:51.097Z,99518.38
2023-08-12T01:58:53.314Z,99522.22
2023-08-12T01:59:55.576Z,99519.75
2023-08-12T02:02:09.173Z,99521.03
2023-08-12T02:03:11.596Z,99526.47
2023-08-12T02:04:13.966Z,99531.44
2023-08-12T02:05:16.706Z,99525.78
2023-08-12T02:06:20.598Z,99528.31
2023-08-12T02:07:23.007Z,99526.69
2023-08-12T02:08:25.381Z,99531.78
2023-08-12T02:09:28.533Z,99517.53
2023-08-12T02:10:30.772Z,99525.47
2023-08-12T02:11:33.622Z,99522.91
2023-08-12T02:12:36.174Z,99518.97
2023-08-12T02:13:38.447Z,99513.16
2023-08-12T02:14:40.762Z,99516.47
2023-08-12T02:15:44.398Z,99511.69
2023-08-12T02:16:48.501Z,99516.84
2023-08-12T02:17:50.766Z,99512.66
2023-08-12T02:18:53.895Z,99510.91
2023-08-12T02:19:57.547Z,99511.06
2023-08-12T02:21:00.007Z,99506.25
2023-08-12T02:22:04.551Z,99512.09
2023-08-12T02:23:06.994Z,99500.84
2023-08-12T02:24:09.543Z,99504.38
2023-08-12T02:25:14.378Z,99500.41
2023-08-12T02:26:17.151Z,99508.38
2023-08-12T02:27:19.433Z,99506.66
2023-08-12T02:28:21.846Z,99505.72
2023-08-12T02:29:24.105Z,99504.75
2023-08-12T02:30:26.323Z,99507.69
2023-08-12T02:31:29.768Z,99506.25
2023-08-12T02:32:32.125Z,99497.19
2023-08-12T02:33:34.352Z,99502.41
2023-08-12T02:34:36.644Z,99502.16
2023-08-12T02:35:39.229Z,99502.03
2023-08-12T02:36:41.622Z,99503.50
2023-08-12T02:37:43.817Z,99495.06
2023-08-12T02:38:46.258Z,99512.03
2023-08-12T02:39:48.664Z,99518.00
2023-08-12T02:40:51.625Z,99521.53
2023-08-12T02:41:53.954Z,99514.09
2023-08-12T02:42:56.208Z,99519.53
2023-08-12T02:43:58.480Z,99518.06
2023-08-12T02:45:01.183Z,99512.03
2023-08-12T02:46:03.744Z,99507.78
2023-08-12T02:47:06.208Z,99518.72
2023-08-12T02:48:10.321Z,99518.09
2023-08-12T02:49:12.674Z,99515.28
2023-08-12T02:50:15.022Z,99516.84
2023-08-12T02:51:17.455Z,99516.53
2023-08-12T02:52:19.735Z,99511.81
2023-08-12T02:53:22.169Z,99511.06
2023-08-12T02:54:24.394Z,99509.38
2023-08-12T02:55:26.697Z,99510.41
2023-08-12T02:56:29.148Z,99512.78
2023-08-12T02:57:31.453Z,99502.84
2023-08-12T02:58:33.762Z,99508.66
2023-08-12T02:59:36.039Z,99510.94
2023-08-12T03:00:38.309Z,99510.13
2023-08-12T03:01:43.244Z,99510.13
2023-08-12T03:02:45.855Z,99509.47
2023-08-12T03:03:48.261Z,99508.22
2023-08-12T03:04:50.512Z,99499.84
2023-08-12T03:05:53.243Z,99507.72
2023-08-12T03:06:55.580Z,99510.59
2023-08-12T03:07:58.672Z,99504.44
2023-08-12T03:09:00.971Z,99505.44
2023-08-12T03:10:03.426Z,99510.34
2023-08-12T03:11:05.728Z,99505.22
2023-08-12T03:12:08.350Z,99510.56
2023-08-12T03:13:10.770Z,99505.19
2023-08-12T03:14:13.790Z,99503.25
2023-08-12T03:15:16.103Z,99502.88
2023-08-12T03:16:19.238Z,99501.78
2023-08-12T03:17:23.502Z,99499.13
2023-08-12T03:18:27.324Z,99507.50
2023-08-12T03:19:29.699Z,99496.09
2023-08-12T03:20:32.294Z,99506.47
2023-08-12T03:21:35.549Z,99496.97
2023-08-12T03:22:38.331Z,99495.50
2023-08-12T03:23:40.604Z,99494.09
2023-08-12T03:24:44.771Z,99489.13
2023-08-12T03:25:50.170Z,99485.97
2023-08-12T03:26:52.492Z,99489.56
2023-08-12T03:27:54.707Z,99477.72
2023-08-12T03:28:57.890Z,99478.44
2023-08-12T03:30:00.203Z,99477.75
2023-08-12T03:31:02.460Z,99476.44
2023-08-12T03:32:06.466Z,99474.19
2023-08-12T03:33:08.859Z,99478.66
2023-08-12T03:34:11.293Z,99474.19
2023-08-12T03:35:13.720Z,99481.09
2023-08-12T03:36:16.182Z,99474.56
2023-08-12T03:37:19.729Z,99468.38
2023-08-12T03:38:24.752Z,99474.78
2023-08-12T03:39:27.614Z,99472.97
2023-08-12T03:40:30.618Z,99469.13
2023-08-12T03:41:33.671Z,99465.34
2023-08-12T03:42:40.459Z,99467.03
2023-08-12T03:43:42.758Z,99465.25
2023-08-12T03:44:45.748Z,99451.16
2023-08-12T03:45:48.506Z,99459.69
2023-08-12T03:46:53.937Z,99452.63
2023-08-12T03:47:56.374Z,99459.41
2023-08-12T03:48:58.739Z,99457.63
2023-08-12T03:50:01.853Z,99466.22
2023-08-12T03:51:06.017Z,99461.84
2023-08-12T03:52:09.338Z,99455.81
2023-08-12T03:53:12.808Z,99465.25
2023-08-12T03:54:15.767Z,99462.19
2023-08-12T03:55:18.048Z,99458.59
2023-08-12T03:56:20.624Z,99469.72
2023-08-12T03:57:23.247Z,99468.16
2023-08-12T03:58:25.507Z,99464.28
2023-08-12T03:59:27.791Z,99472.75
2023-08-12T04:00:30.201Z,99483.81
2023-08-12T04:01:35.377Z,99483.19
2023-08-12T04:02:37.589Z,99478.78
2023-08-12T04:03:39.844Z,99476.88
2023-08-12T04:04:43.711Z,99492.84
2023-08-12T04:05:50.619Z,99486.25
2023-08-12T04:06:53.036Z,99480.03
2023-08-12T04:07:55.482Z,99481.38
2023-08-12T04:08:57.790Z,99475.00
2023-08-12T04:10:00.257Z,99476.75
2023-08-12T04:11:02.525Z,99476.75
2023-08-12T04:12:04.853Z,99472.66
2023-08-12T04:13:07.404Z,99479.91
2023-08-12T04:14:09.679Z,99470.00
2023-08-12T04:15:12.117Z,99473.03
2023-08-12T04:16:14.695Z,99470.38
2023-08-12T04:17:16.972Z,99470.25
2023-08-12T04:18:19.782Z,99484.06
2023-08-12T04:19:22.017Z,99476.97
2023-08-12T04:20:24.233Z,99476.38
2023-08-12T04:21:26.470Z,99472.50
2023-08-12T04:22:29.055Z,99472.00
2023-08-12T04:23:31.349Z,99481.13
2023-08-12T04:24:33.665Z,99474.88
2023-08-12T04:25:35.957Z,99478.13
2023-08-12T04:26:38.253Z,99482.22
2023-08-12T04:27:40.694Z,99491.47
2023-08-12T04:28:43.577Z,99484.44
2023-08-12T04:29:46.591Z,99493.38
2023-08-12T04:30:51.730Z,99496.03
2023-08-12T04:31:54.006Z,99488.03
2023-08-12T04:32:56.408Z,99491.50
2023-08-12T04:34:00.834Z,99496.44
2023-08-12T04:35:04.181Z,99504.03
2023-08-12T04:36:06.792Z,99499.00
2023-08-12T04:38:11.524Z,99497.69
2023-08-12T04:39:14.572Z,99501.22
2023-08-12T04:40:18.200Z,99495.22
2023-08-12T04:41:21.823Z,99497.19
2023-08-12T04:42:25.188Z,99487.66
2023-08-12T04:43:27.802Z,99489.13
2023-08-12T04:44:30.069Z,99483.66
2023-08-12T04:45:33.337Z,99484.38
2023-08-12T04:46:35.774Z,99475.94
2023-08-12T04:47:38.225Z,99483.19
2023-08-12T04:48:40.508Z,99482.72
2023-08-12T04:49:42.759Z,99480.75
2023-08-12T04:50:45.014Z,99474.34
2023-08-12T04:51:47.518Z,99478.56
2023-08-12T04:52:49.937Z,99483.09
2023-08-12T04:53:54.271Z,99479.44
2023-08-12T04:54:57.079Z,99481.25
2023-08-12T04:56:00.791Z,99473.13
2023-08-12T04:57:03.644Z,99471.44
2023-08-12T04:58:06.113Z,99468.53
2023-08-12T04:59:09.655Z,99461.63
2023-08-12T05:00:13.455Z,99459.53
2023-08-12T05:01:15.679Z,99457.25
2023-08-12T05:02:19.740Z,99462.09
2023-08-12T05:03:22.811Z,99461.00
2023-08-12T05:04:26.554Z,99455.31
2023-08-12T05:05:29.664Z,99467.94
2023-08-12T05:06:32.064Z,99469.28
2023-08-12T05:07:34.931Z,99473.50
2023-08-12T05:08:37.860Z,99468.03
2023-08-12T05:09:40.146Z,99471.31
2023-08-12T05:10:43.146Z,99463.44
2023-08-12T05:11:46.312Z,99460.91
2023-08-12T05:12:50.020Z,99461.03
2023-08-12T05:13:52.405Z,99463.94
2023-08-12T05:14:54.642Z,99466.34
2023-08-12T05:15:57.561Z,99463.69
2023-08-12T05:16:59.951Z,99455.56
2023-08-12T05:18:02.360Z,99463.81
2023-08-12T05:19:04.830Z,99461.66
2023-08-12T05:20:07.958Z,99464.53
2023-08-12T05:21:10.205Z,99467.34
2023-08-12T05:22:12.653Z,99471.09
2023-08-12T05:23:15.427Z,99474.59
2023-08-12T05:24:18.684Z,99471.31
2023-08-12T05:25:20.957Z,99474.56
2023-08-12T05:26:23.327Z,99467.09
2023-08-12T05:27:25.650Z,99463.28
2023-08-12T05:28:27.896Z,99466.44
2023-08-12T05:29:30.129Z,99455.22
2023-08-12T05:30:32.400Z,99455.75
2023-08-12T05:31:34.685Z,99443.06
2023-08-12T05:32:37.051Z,99459.88
2023-08-12T05:33:39.404Z,99452.53
2023-08-12T05:34:41.634Z,99456.31
2023-08-12T05:35:43.864Z,99445.44
2023-08-12T05:36:46.088Z,99446.44
2023-08-12T05:37:48.317Z,99439.47
2023-08-12T05:38:50.564Z,99442.88
2023-08-12T05:39:52.790Z,99440.69
2023-08-12T05:40:55.049Z,99425.34
2023-08-12T05:41:57.349Z,99418.00
2023-08-12T05:42:59.551Z,99423.13
2023-08-12T05:44:01.763Z,99417.19
2023-08-12T05:45:06.640Z,99430.19
2023-08-12T05:46:10.526Z,99430.31
2023-08-12T05:47:12.905Z,99433.25
2023-08-12T05:48:15.119Z,99431.19
2023-08-12T05:49:17.484Z,99427.25
2023-08-12T05:50:19.744Z,99428.47
2023-08-12T05:51:22.052Z,99434.28
2023-08-12T05:52:24.606Z,99436.38
2023-08-12T05:53:26.969Z,99437.53
2023-08-12T05:54:29.179Z,99438.97
2023-08-12T05:55:33.892Z,99446.44
2023-08-12T05:56:36.091Z,99446.13
2023-08-12T05:57:38.335Z,99445.44
2023-08-12T05:58:40.565Z,99449.22
2023-08-12T05:59:42.839Z,99449.44
2023-08-12T06:00:46.723Z,99450.34
2023-08-12T06:01:49.037Z,99449.47
2023-08-12T06:02:52.817Z,99454.34
2023-08-12T06:03:55.252Z,99448.00
2023-08-12T06:04:57.606Z,99459.31
2023-08-12T06:05:59.961Z,99461.53
2023-08-12T06:07:02.533Z,99463.38
2023-08-12T06:08:05.062Z,99463.41
2023-08-12T06:09:07.360Z,99477.28
2023-08-12T06:10:09.757Z,99472.38
2023-08-12T06:11:11.985Z,99470.91
2023-08-12T06:12:14.446Z,99477.50
2023-08-12T06:13:17.072Z,99475.75
2023-08-12T06:14:19.380Z,99475.09
2023-08-12T06:15:21.682Z,99469.63
2023-08-12T06:16:24.016Z,99471.13
2023-08-12T06:17:26.267Z,99477.69
2023-08-12T06:18:28.507Z,99471.56
2023-08-12T06:19:30.694Z,99463.53
2023-08-12T06:20:32.853Z,99470.91
2023-08-12T06:21:35.048Z,99471.59
2023-08-12T06:22:37.292Z,99471.59
2023-08-12T06:23:39.492Z,99468.66
2023-08-12T06:24:41.822Z,99471.50
2023-08-12T06:25:44.192Z,99473.56
2023-08-12T06:26:46.558Z,99467.38
2023-08-12T06:27:48.842Z,99468.53
2023-08-12T06:28:51.102Z,99462.88
2023-08-12T06:29:53.368Z,99466.59
2023-08-12T06:30:55.748Z,99466.72
2023-08-12T06:31:58.246Z,99453.19
2023-08-12T06:33:00.621Z,99457.81
2023-08-12T06:34:03.002Z,99451.44
2023-08-12T06:35:05.802Z,99444.16
2023-08-12T06:36:08.005Z,99444.84
2023-08-12T06:37:10.246Z,99442.13
2023-08-12T06:38:12.457Z,99449.97
2023-08-12T06:39:14.774Z,99450.63
2023-08-12T06:40:17.108Z,99439.03
2023-08-12T06:41:19.394Z,99437.84
2023-08-12T06:42:22.225Z,99437.38
2023-08-12T06:43:27.733Z,99426.91
2023-08-12T06:44:31.523Z,99441.66
2023-08-12T06:45:33.801Z,99435.25
2023-08-12T06:46:36.125Z,99444.16
2023-08-12T06:47:38.411Z,99446.41
2023-08-12T06:48:40.822Z,99439.03
2023-08-12T06:49:43.001Z,99438.19
2023-08-12T06:50:45.211Z,99439.16
2023-08-12T06:51:47.455Z,99439.25
2023-08-12T06:52:49.785Z,99430.00
2023-08-12T06:53:52.000Z,99443.06
2023-08-12T06:54:54.386Z,99440.00
2023-08-12T06:55:56.855Z,99443.19
2023-08-12T06:56:59.142Z,99444.25
2023-08-12T06:58:01.863Z,99430.22
2023-08-12T06:59:04.092Z,99427.66
2023-08-12T07:00:06.918Z,99429.31
2023-08-12T07:01:09.297Z,99430.22
2023-08-12T07:02:13.325Z,99434.03
2023-08-12T07:03:15.964Z,99439.31
2023-08-12T07:04:18.294Z,99439.44
2023-08-12T07:05:20.573Z,99446.91
2023-08-12T07:06:23.642Z,99439.41
2023-08-12T07:07:25.880Z,99450.47
2023-08-12T07:08:28.256Z,99448.91
2023-08-12T07:09:30.538Z,99462.72
2023-08-12T07:10:32.783Z,99462.44
2023-08-12T07:11:35.000Z,99460.69
2023-08-12T07:12:37.291Z,99454.50
2023-08-12T07:13:39.577Z,99455.13
2023-08-12T07:14:41.790Z,99457.00
2023-08-12T07:15:44.412Z,99458.06
2023-08-12T07:16:46.659Z,99445.06
2023-08-12T07:17:49.041Z,99456.53
2023-08-12T07:18:51.302Z,99452.47
2023-08-12T07:19:53.513Z,99460.19
2023-08-12T07:20:55.747Z,99448.44
2023-08-12T07:21:58.128Z,99447.44
2023-08-12T07:23:00.423Z,99451.34
2023-08-12T07:24:04.394Z,99452.38
2023-08-12T07:25:07.143Z,99461.03
2023-08-12T07:26:09.409Z,99458.88
2023-08-12T07:27:11.678Z,99461.28
2023-08-12T07:28:14.026Z,99463.31
2023-08-12T07:29:16.269Z,99468.56
2023-08-12T07:30:18.513Z,99465.44
2023-08-12T07:31:20.755Z,99459.91
2023-08-12T07:32:23.057Z,99469.22
2023-08-12T07:33:26.024Z,99469.06
2023-08-12T07:34:31.378Z,99466.31
2023-08-12T07:35:34.500Z,99466.66
2023-08-12T07:36:36.737Z,99470.00
2023-08-12T07:37:39.001Z,99463.59
2023-08-12T07:38:41.259Z,99464.53
2023-08-12T07:39:43.513Z,99463.56
2023-08-12T07:40:45.712Z,99462.47
2023-08-12T07:41:48.037Z,99459.69
2023-08-12T07:42:50.348Z,99458.91
2023-08-12T07:43:52.665Z,99459.53
2023-08-12T07:44:55.041Z,99448.44
2023-08-12T07:46:08.798Z,99456.94
2023-08-12T07:47:12.558Z,99453.81
2023-08-12T07:48:14.843Z,99457.47
2023-08-12T07:49:17.471Z,99452.81
2023-08-12T07:50:19.919Z,99453.16
2023-08-12T07:51:22.455Z,99450.75
2023-08-12T07:52:24.776Z,99451.81
2023-08-12T07:53:27.335Z,99453.81
2023-08-12T07:54:29.592Z,99453.75
2023-08-12T07:55:32.699Z,99458.47
2023-08-12T07:56:34.907Z,99458.72
2023-08-12T07:57:37.195Z,99453.94
2023-08-12T07:58:39.583Z,99451.66
2023-08-12T07:59:41.869Z,99448.19
2023-08-12T08:00:44.193Z,99440.63
2023-08-12T08:01:46.801Z,99445.72
2023-08-12T08:02:49.225Z,99444.72
2023-08-12T08:03:51.452Z,99441.00
2023-08-12T08:04:53.752Z,99435.78
2023-08-12T08:05:56.443Z,99440.53
2023-08-12T08:06:59.039Z,99444.50
2023-08-12T08:08:01.355Z,99445.94
2023-08-12T08:09:04.532Z,99439.34
2023-08-12T08:10:07.164Z,99439.44
2023-08-12T08:11:09.386Z,99442.53
2023-08-12T08:12:12.167Z,99440.66
2023-08-12T08:13:14.792Z,99438.84
2023-08-12T08:14:17.096Z,99441.13
2023-08-12T08:15:19.322Z,99431.06
2023-08-12T08:16:21.690Z,99438.63
2023-08-12T08:17:24.028Z,99431.44
2023-08-12T08:18:26.352Z,99434.94
2023-08-12T08:19:30.046Z,99429.84
2023-08-12T08:20:32.675Z,99435.25
2023-08-12T08:21:35.677Z,99427.41
2023-08-12T08:22:38.077Z,99424.84
2023-08-12T08:23:42.086Z,99414.44
2023-08-12T08:24:44.400Z,99406.84
2023-08-12T08:25:47.054Z,99420.00
2023-08-12T08:26:49.318Z,99419.84
2023-08-12T08:27:51.603Z,99425.84
2023-08-12T08:28:53.852Z,99426.88
2023-08-12T08:29:56.155Z,99428.16
2023-08-12T08:30:58.545Z,99427.50
2023-08-12T08:32:00.855Z,99416.31
2023-08-12T08:33:03.201Z,99409.56
2023-08-12T08:34:05.832Z,99426.69
2023-08-12T08:35:08.230Z,99425.63
2023-08-12T08:36:10.472Z,99430.13
2023-08-12T08:37:12.763Z,99440.97
2023-08-12T08:38:15.013Z,99429.97
2023-08-12T08:39:17.220Z,99440.53
2023-08-12T08:40:21.832Z,99439.75
2023-08-12T08:41:25.557Z,99446.94
2023-08-12T08:42:28.961Z,99449.16
2023-08-12T08:43:32.044Z,99440.28
2023-08-12T08:44:35.032Z,99440.94
2023-08-12T08:45:38.564Z,99436.69
2023-08-12T08:46:42.511Z,99443.94
2023-08-12T08:47:46.123Z,99440.34
2023-08-12T08:48:51.886Z,99437.06
2023-08-12T08:49:58.162Z,99428.50
2023-08-12T08:51:02.215Z,99429.78
2023-08-12T08:52:04.940Z,99416.84
2023-08-12T08:53:07.832Z,99425.63
2023-08-12T08:54:10.869Z,99429.28
2023-08-12T08:56:16.320Z,99426.88
2023-08-12T08:57:27.441Z,99434.72
2023-08-12T08:58:41.313Z,99432.13
2023-08-12T08:59:43.530Z,99425.69
2023-08-12T09:00:45.864Z,99426.03
2023-08-12T09:01:52.220Z,99422.97
2023-08-12T09:02:55.888Z,99420.31
2023-08-12T09:03:59.162Z,99424.50
2023-08-12T09:05:03.381Z,99426.72
2023-08-12T09:06:06.142Z,99433.09
2023-08-12T09:07:08.777Z,99431.38
2023-08-12T09:08:13.885Z,99432.41
2023-08-12T09:09:20.552Z,99433.59
2023-08-12T09:10:29.541Z,99432.69
2023-08-12T09:11:32.220Z,99436.25
2023-08-12T09:12:34.804Z,99434.53
2023-08-12T09:13:37.175Z,99432.84
2023-08-12T09:14:39.420Z,99428.72
2023-08-12T09:15:42.039Z,99432.31
2023-08-12T09:16:44.888Z,99428.13
2023-08-12T09:17:47.197Z,99440.78
2023-08-12T09:18:56.052Z,99439.31
2023-08-12T09:19:58.344Z,99438.81
2023-08-12T09:21:01.092Z,99442.63
2023-08-12T09:22:06.628Z,99439.34
2023-08-12T09:23:11.860Z,99441.97
2023-08-12T09:24:14.053Z,99441.03
2023-08-12T09:25:16.225Z,99439.97
2023-08-12T09:26:20.268Z,99433.34
2023-08-12T09:27:22.474Z,99420.56
2023-08-12T09:28:25.917Z,99422.31
2023-08-12T09:29:36.313Z,99416.66
2023-08-12T09:30:39.749Z,99411.69
2023-08-12T09:31:41.967Z,99425.47
2023-08-12T09:33:00.108Z,99425.06
2023-08-12T09:34:09.660Z,99423.41
2023-08-12T09:35:17.339Z,99418.50
2023-08-12T09:36:21.983Z,99418.88
2023-08-12T09:37:25.632Z,99415.91
2023-08-12T09:38:27.903Z,99405.91
2023-08-12T09:39:34.571Z,99408.81
2023-08-12T09:40:37.551Z,99394.72
2023-08-12T09:41:40.594Z,99410.97
2023-08-12T09:42:47.356Z,99401.91
2023-08-12T09:43:49.664Z,99405.78
2023-08-12T09:44:52.346Z,99406.03
2023-08-12T09:45:58.751Z,99404.56
2023-08-12T09:47:01.750Z,99407.25
2023-08-12T09:48:04.547Z,99398.81
2023-08-12T09:49:07.888Z,99404.09
2023-08-12T09:50:10.169Z,99395.72
2023-08-12T09:51:12.425Z,99402.47
2023-08-12T09:52:15.131Z,99411.16
2023-08-12T09:53:17.777Z,99400.75
2023-08-12T09:54:20.378Z,99399.06
2023-08-12T09:55:25.815Z,99413.13
2023-08-12T09:56:34.489Z,99412.59
2023-08-12T09:57:43.083Z,99417.75
2023-08-12T09:58:49.081Z,99422.25
2023-08-12T09:59:54.719Z,99418.34
2023-08-12T10:00:57.741Z,99418.97
2023-08-12T10:02:00.757Z,99417.28
2023-08-12T10:03:03.319Z,99411.38
2023-08-12T10:04:10.277Z,99406.75
2023-08-12T10:05:16.856Z,99408.31
2023-08-12T10:06:19.285Z,99401.19
2023-08-12T10:07:22.570Z,99394.75
2023-08-12T10:08:25.425Z,99386.50
2023-08-12T10:09:27.841Z,99390.88
2023-08-12T10:10:31.711Z,99403.47
2023-08-12T10:11:34.084Z,99391.47
2023-08-12T10:12:37.382Z,99405.69
2023-08-12T10:13:41.632Z,99403.41
2023-08-12T10:14:44.035Z,99399.56
2023-08-12T10:15:46.781Z,99380.72
2023-08-12T10:16:49.354Z,99395.19
2023-08-12T10:17:53.195Z,99391.25
2023-08-12T10:18:58.198Z,99395.47
2023-08-12T10:20:04.039Z,99393.56
2023-08-12T10:21:10.477Z,99392.97
2023-08-12T10:22:13.872Z,99387.88
2023-08-12T10:23:19.186Z,99395.97
2023-08-12T10:24:22.557Z,99394.88
2023-08-12T10:25:26.187Z,99402.69
2023-08-12T10:26:28.564Z,99391.75
2023-08-12T10:27:30.987Z,99402.28
2023-08-12T10:28:37.848Z,99399.94
2023-08-12T10:29:43.077Z,99408.81
2023-08-12T10:30:46.238Z,99406.69
2023-08-12T10:31:48.778Z,99412.50
2023-08-12T10:32:51.563Z,99407.19
2023-08-12T10:33:53.911Z,99410.28
2023-08-12T10:34:57.667Z,99413.66
2023-08-12T10:36:00.283Z,99414.78
2023-08-12T10:37:04.362Z,99416.25
2023-08-12T10:38:07.571Z,99402.84
2023-08-12T10:39:11.314Z,99406.22
2023-08-12T10:40:24.096Z,99414.75
2023-08-12T10:41:27.010Z,99413.75
2023-08-12T10:42:49.239Z,99408.22
2023-08-12T10:43:57.152Z,99410.97
2023-08-12T10:44:59.516Z,99409.00
2023-08-12T10:46:01.794Z,99416.03
2023-08-12T10:47:09.424Z,99417.78
2023-08-12T10:48:21.212Z,99413.84
2023-08-12T10:49:23.682Z,99416.00
2023-08-12T10:50:26.823Z,99413.69
2023-08-12T10:51:51.688Z,99408.38
2023-08-12T10:52:55.198Z,99396.56
2023-08-12T10:54:23.163Z,99401.19
2023-08-12T10:55:28.256Z,99400.81
2023-08-12T10:56:30.562Z,99389.63
2023-08-12T10:57:41.326Z,99399.94
2023-08-12T10:58:48.016Z,99399.38
2023-08-12T10:59:52.513Z,99399.94
2023-08-12T11:00:56.607Z,99402.53
2023-08-12T11:02:08.718Z,99412.72
2023-08-12T11:03:11.034Z,99414.91
2023-08-12T11:04:20.079Z,99418.78
2023-08-12T11:05:23.228Z,99426.16
2023-08-12T11:06:29.016Z,99434.75
2023-08-12T11:07:36.288Z,99438.50
2023-08-12T11:08:48.009Z,99443.88
2023-08-12T11:09:54.212Z,99444.13
2023-08-12T11:10:58.254Z,99442.53
2023-08-12T11:12:01.288Z,99436.38
2023-08-12T11:13:04.727Z,99428.81
2023-08-12T11:14:15.285Z,99429.66
2023-08-12T11:15:18.244Z,99430.44
2023-08-12T11:16:31.847Z,99431.56
2023-08-12T11:17:42.012Z,99429.72
2023-08-12T11:18:44.472Z,99427.78
2023-08-12T11:19:48.000Z,99422.06
2023-08-12T11:20:50.631Z,99416.72
2023-08-12T11:21:53.566Z,99416.66
2023-08-12T11:22:55.963Z,99413.56
2023-08-12T11:23:58.199Z,99404.66
2023-08-12T11:25:01.138Z,99404.78
2023-08-12T11:26:04.255Z,99391.50
2023-08-12T11:27:07.586Z,99390.44
2023-08-12T11:28:09.823Z,99393.69
2023-08-12T11:29:15.616Z,99393.72
2023-08-12T11:30:20.039Z,99385.13
2023-08-12T11:31:23.406Z,99384.44
2023-08-12T11:32:25.874Z,99393.38
2023-08-12T11:33:28.230Z,99399.47
2023-08-12T11:34:31.235Z,99401.66
2023-08-12T11:35:33.417Z,99398.41
2023-08-12T11:36:35.643Z,99411.50
2023-08-12T11:37:42.280Z,99407.44
2023-08-12T11:38:44.670Z,99420.78
2023-08-12T11:39:46.950Z,99421.50
2023-08-12T11:40:51.347Z,99430.09
2023-08-12T11:41:53.659Z,99423.28
2023-08-12T11:42:56.326Z,99417.22
2023-08-12T11:43:58.612Z,99411.84
2023-08-12T11:45:00.936Z,99414.69
2023-08-12T11:46:03.235Z,99427.94
2023-08-12T11:47:05.684Z,99438.22
2023-08-12T11:48:07.961Z,99450.53
2023-08-12T11:49:10.308Z,99448.47
2023-08-12T11:50:13.337Z,99450.75
2023-08-12T11:51:15.742Z,99444.09
2023-08-12T11:52:18.068Z,99446.22
2023-08-12T11:53:21.397Z,99433.81
2023-08-12T11:54:23.852Z,99435.50
2023-08-12T11:55:26.525Z,99427.00
2023-08-12T11:56:29.134Z,99423.59
2023-08-12T11:57:31.620Z,99433.19
2023-08-12T11:58:51.151Z,99434.91
2023-08-12T12:00:12.961Z,99447.75
2023-08-12T12:01:17.860Z,99453.34
2023-08-12T12:02:21.249Z,99449.81
2023-08-12T12:03:23.677Z,99457.53
2023-08-12T12:04:26.388Z,99457.22
2023-08-12T12:05:31.217Z,99460.59
2023-08-12T12:06:37.758Z,99458.69
2023-08-12T12:07:40.596Z,99449.91
2023-08-12T12:08:44.867Z,99450.16
2023-08-12T12:09:47.248Z,99439.22
2023-08-12T12:10:49.832Z,99445.25
2023-08-12T12:11:54.165Z,99440.44
2023-08-12T12:12:57.208Z,99445.69
2023-08-12T12:14:09.732Z,99451.34
2023-08-12T12:15:14.052Z,99452.22
2023-08-12T12:16:16.650Z,99458.28
2023-08-12T12:17:18.869Z,99449.22
2023-08-12T12:18:21.106Z,99456.66
2023-08-12T12:19:24.696Z,99441.19
2023-08-12T12:20:28.339Z,99441.03
2023-08-12T12:21:30.798Z,99441.81
2023-08-12T12:22:34.558Z,99441.91
2023-08-12T12:23:38.565Z,99432.19
2023-08-12T12:24:48.117Z,99441.78
2023-08-12T12:25:57.900Z,99437.16
2023-08-12T12:27:01.131Z,99438.91
2023-08-12T12:28:04.851Z,99433.53
2023-08-12T12:29:07.726Z,99437.28